createdAt,value
2022-10-24T00:00:29.188Z,99.99
2022-10-24T00:01:29.038Z,99.99
2022-10-24T00:02:29.373Z,99.99
2022-10-24T00:03:29.282Z,99.99
2022-10-24T00:04:29.015Z,99.99
2022-10-24T00:05:29.320Z,99.99
2022-10-24T00:06:29.001Z,99.99
2022-10-24T00:07:28.991Z,99.99
2022-10-24T00:08:28.982Z,99.99
2022-10-24T00:09:29.232Z,99.99
2022-10-24T00:10:29.224Z,99.99
2022-10-24T00:11:28.967Z,99.99
2022-10-24T00:12:28.956Z,99.99
2022-10-24T00:13:29.202Z,99.99
2022-10-24T00:14:28.935Z,99.99
2022-10-24T00:15:29.185Z,99.99
2022-10-24T00:16:29.175Z,99.99
2022-10-24T00:17:28.915Z,99.99
2022-10-24T00:18:29.164Z,99.99
2022-10-24T00:19:28.895Z,99.99
2022-10-24T00:20:28.889Z,99.99
2022-10-24T00:21:29.183Z,99.99
2022-10-24T00:22:29.131Z,99.99
2022-10-24T00:23:29.116Z,99.99
2022-10-24T00:24:28.861Z,99.99
2022-10-24T00:25:28.847Z,99.99
2022-10-24T00:26:29.103Z,99.99
2022-10-24T00:27:28.835Z,99.99
2022-10-24T00:28:28.828Z,99.99
2022-10-24T00:29:29.070Z,99.99
2022-10-24T00:30:29.062Z,99.99
2022-10-24T00:31:28.798Z,99.99
2022-10-24T00:32:28.791Z,99.99
2022-10-24T00:33:28.782Z,99.99
2022-10-24T00:34:28.775Z,99.99
2022-10-24T00:35:28.764Z,99.99
2022-10-24T00:36:29.014Z,99.99
2022-10-24T00:37:29.063Z,99.99
2022-10-24T00:38:28.998Z,99.99
2022-10-24T00:39:28.988Z,99.99
2022-10-24T00:40:28.728Z,99.99
2022-10-24T00:41:28.974Z,99.99
2022-10-24T00:42:28.967Z,99.99
2022-10-24T00:43:28.957Z,99.99
2022-10-24T00:44:28.949Z,99.99
2022-10-24T00:45:28.815Z,99.99
2022-10-24T00:46:28.930Z,99.99
2022-10-24T00:47:28.921Z,99.99
2022-10-24T00:48:28.661Z,99.99
2022-10-24T00:49:28.901Z,99.99
2022-10-24T00:50:28.896Z,99.99
2022-10-24T00:51:28.636Z,99.99
2022-10-24T00:52:28.889Z,99.99
2022-10-24T00:53:28.915Z,99.99
2022-10-24T00:54:28.860Z,99.99
2022-10-24T00:55:28.850Z,99.99
2022-10-24T00:56:28.842Z,99.99
2022-10-24T00:57:28.840Z,99.99
2022-10-24T00:58:28.827Z,99.99
2022-10-24T00:59:28.815Z,99.99
2022-10-24T01:00:28.699Z,99.99
2022-10-24T01:01:28.652Z,99.99
2022-10-24T01:02:28.790Z,99.99
2022-10-24T01:03:28.523Z,99.99
2022-10-24T01:04:28.515Z,99.99
2022-10-24T01:05:28.512Z,99.99
2022-10-24T01:06:28.757Z,99.99
2022-10-24T01:07:28.491Z,99.99
2022-10-24T01:08:28.740Z,99.99
2022-10-24T01:09:28.778Z,99.99
2022-10-24T01:10:28.807Z,99.99
2022-10-24T01:11:28.455Z,99.99
2022-10-24T01:12:28.711Z,99.99
2022-10-24T01:13:28.437Z,99.99
2022-10-24T01:14:28.424Z,99.99
2022-10-24T01:15:28.418Z,99.99
2022-10-24T01:16:28.409Z,99.99
2022-10-24T01:17:28.658Z,99.99
2022-10-24T01:18:28.650Z,99.99
2022-10-24T01:19:28.649Z,99.99
2022-10-24T01:20:28.374Z,99.99
2022-10-24T01:21:28.372Z,99.99
2022-10-24T01:22:28.611Z,99.99
2022-10-24T01:23:28.611Z,99.99
2022-10-24T01:24:28.336Z,99.99
2022-10-24T01:25:28.634Z,99.99
2022-10-24T01:26:28.572Z,99.99
2022-10-24T01:27:28.567Z,99.99
2022-10-24T01:28:28.554Z,99.99
2022-10-24T01:29:28.547Z,99.99
2022-10-24T01:30:28.539Z,99.99
2022-10-24T01:31:28.545Z,99.99
2022-10-24T01:32:28.518Z,99.99
2022-10-24T01:33:28.518Z,99.99
2022-10-24T01:34:28.242Z,99.99
2022-10-24T01:35:28.571Z,99.99
2022-10-24T01:36:28.223Z,99.99
2022-10-24T01:37:28.474Z,99.99
2022-10-24T01:38:28.465Z,99.99
2022-10-24T01:39:28.455Z,99.99
2022-10-24T01:40:28.252Z,99.99
2022-10-24T01:41:28.494Z,99.99
2022-10-24T01:42:28.177Z,99.99
2022-10-24T01:43:28.416Z,99.99
2022-10-24T01:44:28.403Z,99.99
2022-10-24T01:45:28.144Z,99.99
2022-10-24T01:46:28.388Z,99.99
2022-10-24T01:47:28.123Z,99.99
2022-10-24T01:48:28.370Z,99.99
2022-10-24T01:49:28.112Z,99.99
2022-10-24T01:50:28.092Z,99.99
2022-10-24T01:51:28.346Z,99.99
2022-10-24T01:52:28.333Z,99.99
2022-10-24T01:53:28.323Z,99.99
2022-10-24T01:54:28.313Z,99.99
2022-10-24T01:55:28.303Z,99.99
2022-10-24T01:56:28.291Z,99.99
2022-10-24T01:57:28.340Z,99.99
2022-10-24T01:58:28.021Z,99.99
2022-10-24T01:59:28.266Z,99.99
2022-10-24T02:00:28.220Z,99.99
2022-10-24T02:01:28.109Z,99.99
2022-10-24T02:02:28.243Z,99.99
2022-10-24T02:03:27.971Z,99.99
2022-10-24T02:04:28.215Z,99.99
2022-10-24T02:05:27.952Z,99.99
2022-10-24T02:06:28.197Z,99.99
2022-10-24T02:07:28.186Z,99.99
2022-10-24T02:08:27.921Z,99.99
2022-10-24T02:09:27.911Z,99.99
2022-10-24T02:10:28.169Z,99.99
2022-10-24T02:11:28.149Z,99.99
2022-10-24T02:12:28.138Z,99.99
2022-10-24T02:13:28.177Z,99.99
2022-10-24T02:14:28.119Z,99.61
2022-10-24T02:15:27.856Z,99.71
2022-10-24T02:16:28.100Z,99.99
2022-10-24T02:18:28.081Z,99.52
2022-10-24T02:19:28.074Z,99.61
2022-10-24T02:20:27.804Z,99.04
2022-10-24T02:21:28.060Z,99.42
2022-10-24T02:22:28.042Z,98.99
2022-10-24T02:23:27.783Z,97.99
2022-10-24T02:24:27.764Z,98.22
2022-10-24T02:25:28.009Z,97.56
2022-10-24T02:26:28.007Z,97.56
2022-10-24T02:27:27.991Z,96.89
2022-10-24T02:28:27.987Z,97.08
2022-10-24T02:29:28.019Z,96.7
2022-10-24T02:30:27.964Z,96.51
2022-10-24T02:31:27.701Z,95.94
2022-10-24T02:32:27.941Z,95.46
2022-10-24T02:33:27.678Z,94.98
2022-10-24T02:34:27.665Z,94.7
2022-10-24T02:35:27.657Z,94.51
2022-10-24T02:36:27.648Z,94.32
2022-10-24T02:37:27.632Z,94.03
2022-10-24T02:38:27.628Z,93.36
2022-10-24T02:39:27.613Z,93.55
2022-10-24T02:40:27.604Z,93.46
2022-10-24T02:41:27.595Z,93.08
2022-10-24T02:43:27.826Z,92.98
2022-10-24T02:44:27.820Z,92.5
2022-10-24T02:45:27.856Z,92.69
2022-10-24T02:46:27.802Z,92.32
2022-10-24T02:47:27.788Z,92.41
2022-10-24T02:48:27.524Z,92.12
2022-10-24T02:49:27.509Z,92.32
2022-10-24T02:50:27.755Z,91.93
2022-10-24T02:51:27.743Z,91.83
2022-10-24T02:52:27.737Z,92.5
2022-10-24T02:53:27.469Z,91.93
2022-10-24T02:54:27.461Z,91.83
2022-10-24T02:55:27.713Z,91.74
2022-10-24T02:56:27.437Z,91.46
2022-10-24T02:57:27.685Z,90.69
2022-10-24T02:58:27.679Z,90.88
2022-10-24T02:59:27.669Z,91.64
2022-10-24T03:00:27.880Z,91.74
2022-10-24T03:01:27.898Z,91.46
2022-10-24T03:02:27.635Z,91.46
2022-10-24T03:03:27.370Z,91.55
2022-10-24T03:04:27.618Z,91.55
2022-10-24T03:05:27.349Z,90.98
2022-10-24T03:06:27.336Z,90.5
2022-10-24T03:07:27.786Z,90.5
2022-10-24T03:08:27.577Z,90.69
2022-10-24T03:09:27.318Z,90.41
2022-10-24T03:10:27.550Z,90.22
2022-10-24T03:11:27.287Z,89.93
2022-10-24T03:12:27.529Z,89.93
2022-10-24T03:13:27.522Z,89.17
2022-10-24T03:14:27.509Z,88.69
2022-10-24T03:15:27.510Z,88.78
2022-10-24T03:16:27.490Z,89.07
2022-10-24T03:17:27.530Z,88.88
2022-10-24T03:18:27.467Z,88.78
2022-10-24T03:19:27.461Z,88.88
2022-10-24T03:20:27.194Z,88.69
2022-10-24T03:21:27.438Z,88.69
2022-10-24T03:22:33.170Z,89.07
2022-10-24T03:23:27.162Z,88.69
2022-10-24T03:24:54.969Z,88.59
2022-10-24T03:25:27.399Z,88.31
2022-10-24T03:26:27.384Z,88.59
2022-10-24T03:27:27.376Z,88.31
2022-10-24T03:28:27.110Z,88.78
2022-10-24T03:29:27.356Z,88.59
2022-10-24T03:30:27.087Z,89.36
2022-10-24T03:31:27.078Z,89.26
2022-10-24T03:49:56.295Z,87.35
2022-10-24T03:50:55.987Z,87.07
2022-10-24T03:51:56.218Z,86.98
2022-10-24T03:52:56.207Z,86.78
2022-10-24T03:53:56.195Z,86.88
2022-10-24T03:54:56.186Z,87.45
2022-10-24T03:55:56.171Z,87.07
2022-10-24T03:56:56.155Z,86.98
2022-10-24T03:57:55.886Z,87.07
2022-10-24T03:58:56.143Z,86.98
2022-10-24T03:59:56.114Z,86.49
2022-10-24T04:00:56.211Z,86.49
2022-10-24T04:01:55.950Z,86.78
2022-10-24T04:02:56.084Z,86.3
2022-10-24T04:03:55.813Z,85.06
2022-10-24T04:04:55.809Z,84.69
2022-10-24T04:05:56.101Z,83.92
2022-10-24T04:06:55.783Z,84.78
2022-10-24T04:07:55.771Z,84.69
2022-10-24T04:08:55.761Z,84.11
2022-10-24T04:09:56.003Z,83.73
2022-10-24T04:10:55.995Z,83.16
2022-10-24T04:11:55.726Z,81.35
2022-10-24T04:12:55.974Z,81.54
2022-10-24T04:13:55.794Z,81.96
2022-10-24T04:14:55.985Z,82.43
2022-10-24T04:15:55.936Z,83.29
2022-10-24T04:16:55.929Z,82.91
2022-10-24T04:17:55.658Z,83.29
2022-10-24T04:18:55.657Z,83.01
2022-10-24T04:19:55.638Z,83.29
2022-10-24T04:20:55.629Z,83.58
2022-10-24T04:21:55.919Z,83.77
2022-10-24T04:22:55.608Z,84.25
2022-10-24T04:23:55.851Z,84.92
2022-10-24T04:24:55.587Z,85.68
2022-10-24T04:25:55.828Z,86.82
2022-10-24T04:26:55.567Z,87.02
2022-10-24T04:27:55.811Z,87.4
2022-10-24T04:28:55.802Z,87.68
2022-10-24T04:29:55.538Z,87.68
2022-10-24T04:30:55.525Z,86.92
2022-10-24T04:31:55.768Z,87.21
2022-10-24T04:32:55.501Z,87.02
2022-10-24T04:33:55.492Z,87.68
2022-10-24T04:34:55.737Z,87.59
2022-10-24T04:35:55.472Z,87.78
2022-10-24T04:36:55.722Z,87.49
2022-10-24T04:37:55.753Z,86.54
2022-10-24T04:38:55.514Z,86.06
2022-10-24T04:39:55.429Z,86.35
2022-10-24T04:40:55.682Z,86.35
2022-10-24T04:41:55.678Z,86.44
2022-10-24T04:42:55.397Z,86.35
2022-10-24T04:43:55.646Z,86.44
2022-10-24T04:44:55.375Z,85.97
2022-10-24T04:45:55.368Z,86.44
2022-10-24T04:46:55.354Z,86.63
2022-10-24T04:47:55.351Z,86.54
2022-10-24T04:48:55.334Z,86.44
2022-10-24T04:49:55.588Z,86.82
2022-10-24T04:50:55.573Z,86.82
2022-10-24T04:51:55.574Z,87.59
2022-10-24T04:52:55.548Z,87.02
2022-10-24T04:53:55.619Z,86.92
2022-10-24T04:54:55.529Z,87.11
2022-10-24T04:55:55.521Z,87.21
2022-10-24T04:56:55.509Z,86.44
2022-10-24T04:57:55.245Z,86.35
2022-10-24T04:58:55.236Z,86.63
2022-10-24T04:59:55.483Z,86.69
2022-10-24T05:00:55.469Z,86.44
2022-10-24T05:01:55.563Z,86.54
2022-10-24T05:02:59.093Z,86.35
2022-10-24T05:03:55.606Z,86.54
2022-10-24T05:04:55.176Z,85.68
2022-10-24T05:05:55.421Z,85.68
2022-10-24T05:06:55.153Z,85.58
2022-10-24T05:07:55.414Z,86.63
2022-10-24T05:08:55.389Z,86.92
2022-10-24T05:09:55.428Z,87.21
2022-10-24T05:10:55.365Z,86.88
2022-10-24T05:11:55.103Z,87.16
2022-10-24T05:12:55.344Z,85.93
2022-10-24T05:13:55.082Z,85.35
2022-10-24T05:14:55.075Z,84.72
2022-10-24T05:15:55.317Z,84.82
2022-10-24T05:16:55.050Z,84.72
2022-10-24T05:17:55.042Z,84.44
2022-10-24T05:18:55.282Z,85.11
2022-10-24T05:19:55.021Z,85.01
2022-10-24T05:20:55.015Z,85.11
2022-10-24T05:21:55.000Z,84.63
2022-10-24T05:22:54.988Z,84.82
2022-10-24T05:23:54.979Z,84.72
2022-10-24T05:24:55.220Z,84.82
2022-10-24T05:25:55.276Z,84.53
2022-10-24T05:26:54.946Z,84.25
2022-10-24T05:27:55.198Z,83.87
2022-10-24T05:28:55.201Z,83.77
2022-10-24T05:29:55.185Z,83.67
2022-10-24T05:30:55.671Z,83.96
2022-10-24T05:31:55.670Z,83.87
2022-10-24T05:32:55.657Z,84.06
2022-10-24T05:33:55.385Z,83.39
2022-10-24T05:34:55.378Z,83.29
2022-10-24T05:35:55.624Z,83.77
2022-10-24T05:36:55.353Z,83.48
2022-10-24T05:37:55.602Z,83.77
2022-10-24T05:38:55.590Z,83.77
2022-10-24T05:39:55.590Z,83.96
2022-10-24T05:40:55.315Z,84.44
2022-10-24T05:41:57.905Z,84.44
2022-10-24T05:42:55.293Z,84.82
2022-10-24T05:43:55.534Z,84.72
2022-10-24T05:44:55.527Z,85.01
2022-10-24T05:45:55.535Z,83.96
2022-10-24T05:46:55.259Z,83.87
2022-10-24T05:47:55.238Z,84.16
2022-10-24T05:48:55.234Z,84.69
2022-10-24T05:49:55.220Z,84.82
2022-10-24T05:50:55.468Z,83.83
2022-10-24T05:51:55.455Z,84.01
2022-10-24T05:52:55.468Z,83.83
2022-10-24T05:53:55.432Z,83.25
2022-10-24T05:55:09.459Z,84.4
2022-10-24T05:55:55.413Z,84.3
2022-10-24T05:56:55.404Z,83.83
2022-10-24T05:57:55.445Z,83.64
2022-10-24T05:58:55.129Z,82.97
2022-10-24T05:59:55.368Z,82.87
2022-10-24T06:00:56.711Z,82.59
2022-10-24T06:01:55.406Z,83.06
2022-10-24T06:02:55.095Z,83.06
2022-10-24T06:03:55.077Z,83.06
2022-10-24T06:04:55.339Z,82.49
2022-10-24T06:05:55.057Z,82.78
2022-10-24T06:06:55.071Z,82.59
2022-10-24T06:07:55.036Z,81.54
2022-10-24T06:08:55.028Z,81.44
2022-10-24T06:09:55.266Z,81.58
2022-10-24T06:10:55.005Z,81.67
2022-10-24T06:11:55.250Z,80.53
2022-10-24T06:12:55.244Z,80.33
2022-10-24T06:13:55.276Z,80.24
2022-10-24T06:14:54.964Z,80.05
2022-10-24T06:15:55.205Z,80.15
2022-10-24T06:16:54.943Z,79.67
2022-10-24T06:17:54.928Z,79.48
2022-10-24T06:18:55.180Z,79.67
2022-10-24T06:19:55.172Z,80.15
2022-10-24T06:20:58.514Z,80.81
2022-10-24T06:21:55.145Z,80.81
2022-10-24T06:22:55.134Z,80.72
2022-10-24T06:23:55.127Z,80.72
2022-10-24T06:24:54.855Z,81.01
2022-10-24T06:25:55.106Z,81.58
2022-10-24T06:26:55.092Z,80.53
2022-10-24T06:27:55.138Z,80.72
2022-10-24T06:28:55.071Z,80.62
2022-10-24T06:29:55.122Z,81.67
2022-10-24T06:30:55.060Z,81.38
2022-10-24T06:31:54.791Z,81.58
2022-10-24T06:32:54.775Z,81.29
2022-10-24T06:33:55.026Z,81.48
2022-10-24T06:34:55.012Z,81.62
2022-10-24T06:35:55.005Z,81.38
2022-10-24T06:36:54.994Z,80.91
2022-10-24T06:37:55.554Z,80.62
2022-10-24T06:38:54.971Z,80.76
2022-10-24T06:39:54.710Z,80.76
2022-10-24T06:40:54.953Z,80.95
2022-10-24T06:41:54.943Z,81.33
2022-10-24T06:42:54.678Z,81.81
2022-10-24T06:43:54.924Z,81.9
2022-10-24T06:44:54.753Z,82.76
2022-10-24T06:45:54.964Z,82.57
2022-10-24T06:46:54.895Z,83.05
2022-10-24T06:47:57.160Z,83.34
2022-10-24T06:48:54.873Z,83.62
2022-10-24T06:49:54.610Z,83.72
2022-10-24T06:50:54.599Z,84
2022-10-24T06:51:54.844Z,84.1
2022-10-24T06:52:54.998Z,84.86
2022-10-24T06:53:54.986Z,84.67
2022-10-24T06:54:55.234Z,84.77
2022-10-24T06:55:55.224Z,84.58
2022-10-24T06:56:55.217Z,84.96
2022-10-24T06:57:54.951Z,85.15
2022-10-24T06:58:55.194Z,85.05
2022-10-24T06:59:55.186Z,85.15
2022-10-24T07:00:55.250Z,85.44
2022-10-24T07:01:55.552Z,85.15
2022-10-24T07:02:54.901Z,85.53
2022-10-24T07:03:55.146Z,85.44
2022-10-24T07:04:54.875Z,85.67
2022-10-24T07:05:55.129Z,85.91
2022-10-24T07:06:55.119Z,86.58
2022-10-24T07:07:55.108Z,86.63
2022-10-24T07:08:54.839Z,87.2
2022-10-24T07:09:54.832Z,87.48
2022-10-24T07:10:55.073Z,87.48
2022-10-24T07:11:55.068Z,88.34
2022-10-24T07:12:54.802Z,88.54
2022-10-24T07:14:00.735Z,88.63
2022-10-24T07:14:54.782Z,89.2
2022-10-24T07:15:55.032Z,89.49
2022-10-24T07:16:54.763Z,89.68
2022-10-24T07:17:55.087Z,89.68
2022-10-24T07:18:54.747Z,90.92
2022-10-24T07:19:54.740Z,91.02
2022-10-24T07:20:54.987Z,91.11
2022-10-24T07:21:54.972Z,91.11
2022-10-24T07:22:54.967Z,92.16
2022-10-24T07:23:54.953Z,92.59
2022-10-24T07:24:54.947Z,93.02
2022-10-24T07:25:54.932Z,92.83
2022-10-24T07:26:54.669Z,93.7
2022-10-24T07:27:54.917Z,94.36
2022-10-24T07:28:55.057Z,94.6
2022-10-24T07:29:54.651Z,95.84
2022-10-24T07:30:54.892Z,95.65
2022-10-24T07:31:54.882Z,96.03
2022-10-24T07:32:54.872Z,97.75
2022-10-24T07:33:54.910Z,98.13
2022-10-24T07:34:54.855Z,97.66
2022-10-24T07:35:54.588Z,97.94
2022-10-24T07:36:54.839Z,98.61
2022-10-24T07:37:54.824Z,99.19
2022-10-24T07:38:54.825Z,99.28
2022-10-24T07:39:54.803Z,99.19
2022-10-24T07:40:54.543Z,99.85
2022-10-24T07:41:54.785Z,99.76
2022-10-24T07:42:54.780Z,99.99
2022-10-24T07:43:54.512Z,99.99
2022-10-24T07:44:54.762Z,99.99
2022-10-24T07:45:55.018Z,99.99
2022-10-24T07:46:54.745Z,99.99
2022-10-24T07:47:54.734Z,99.99
2022-10-24T07:48:54.731Z,99.99
2022-10-24T07:49:54.766Z,99.99
2022-10-24T07:50:54.455Z,99.99
2022-10-24T07:51:54.442Z,99.99
2022-10-24T07:52:54.697Z,99.99
2022-10-24T07:53:54.690Z,99.99
2022-10-24T07:54:54.682Z,99.99
2022-10-24T07:55:54.410Z,99.99
2022-10-24T07:56:56.550Z,99.99
2022-10-24T07:57:54.644Z,99.99
2022-10-24T07:58:54.639Z,99.99
2022-10-24T07:59:54.370Z,99.99
2022-10-24T08:00:54.624Z,99.99
2022-10-24T08:01:54.361Z,99.99
2022-10-24T08:02:54.609Z,99.99
2022-10-24T08:03:54.597Z,99.99
2022-10-24T08:04:54.586Z,99.99
2022-10-24T08:05:54.626Z,99.99
2022-10-24T08:06:54.314Z,99.99
2022-10-24T08:08:19.966Z,99.99
2022-10-24T08:08:54.298Z,99.99
2022-10-24T08:09:54.546Z,99.99
2022-10-24T08:10:54.615Z,99.99
2022-10-24T08:11:54.531Z,99.99
2022-10-24T08:12:54.263Z,99.99
2022-10-24T08:13:54.258Z,99.99
2022-10-24T08:14:54.244Z,99.99
2022-10-24T08:15:54.240Z,99.99
2022-10-24T08:16:54.481Z,99.99
2022-10-24T08:17:54.225Z,99.99
2022-10-24T08:18:54.207Z,99.99
2022-10-24T08:19:54.459Z,99.99
2022-10-24T08:20:54.197Z,99.99
2022-10-24T08:21:54.491Z,99.99
2022-10-24T08:22:54.174Z,99.99
2022-10-24T08:23:54.449Z,99.99
2022-10-24T08:24:54.412Z,99.99
2022-10-24T08:25:54.408Z,99.99
2022-10-24T08:26:54.141Z,99.99
2022-10-24T08:27:54.389Z,99.99
2022-10-24T08:28:54.379Z,99.99
2022-10-24T08:29:54.114Z,99.99
2022-10-24T08:30:54.108Z,99.99
2022-10-24T08:31:54.355Z,99.99
2022-10-24T08:32:54.149Z,99.99
2022-10-24T08:33:54.089Z,99.99
2022-10-24T08:34:54.081Z,99.99
2022-10-24T08:35:54.068Z,99.99
2022-10-24T08:36:54.309Z,99.99
2022-10-24T08:37:54.355Z,99.99
2022-10-24T08:38:54.043Z,99.99
2022-10-24T08:39:54.289Z,99.99
2022-10-24T08:40:54.026Z,99.99
2022-10-24T08:41:59.412Z,99.99
2022-10-24T08:42:54.017Z,99.99
2022-10-24T08:43:54.263Z,99.99
2022-10-24T08:44:53.985Z,99.99
2022-10-24T08:45:54.234Z,99.99
2022-10-24T08:46:54.223Z,99.99
2022-10-24T08:47:54.224Z,99.99
2022-10-24T08:48:54.205Z,99.99
2022-10-24T08:49:54.201Z,99.99
2022-10-24T08:50:54.019Z,99.99
2022-10-24T08:51:54.181Z,99.99
2022-10-24T08:52:54.181Z,99.99
2022-10-24T08:53:54.218Z,99.99
2022-10-24T08:54:53.903Z,99.99
2022-10-24T08:55:54.198Z,99.99
2022-10-24T08:56:53.883Z,99.99
2022-10-24T08:57:54.131Z,99.99
2022-10-24T08:58:54.123Z,99.99
2022-10-24T08:59:54.119Z,99.99
2022-10-24T09:00:53.891Z,99.99
2022-10-24T09:01:56.149Z,99.99
2022-10-24T09:02:55.011Z,99.99
2022-10-24T09:03:59.386Z,99.99
2022-10-24T09:04:54.987Z,99.99
2022-10-24T09:05:54.723Z,99.99
2022-10-24T09:06:54.716Z,99.99
2022-10-24T09:07:54.965Z,99.99
2022-10-24T09:08:54.956Z,99.99
2022-10-24T09:09:54.986Z,99.99
2022-10-24T09:10:55.071Z,99.99
2022-10-24T09:11:54.927Z,99.99
2022-10-24T09:12:54.666Z,99.99
2022-10-24T09:13:54.662Z,99.99
2022-10-24T09:14:54.903Z,99.99
2022-10-24T09:15:54.891Z,99.99
2022-10-24T09:16:54.884Z,99.99
2022-10-24T09:17:54.886Z,99.99
2022-10-24T09:18:54.862Z,99.99
2022-10-24T09:19:54.600Z,99.99
2022-10-24T09:20:54.915Z,99.99
2022-10-24T09:21:54.580Z,99.99
2022-10-24T09:22:54.835Z,99.99
2022-10-24T09:23:54.823Z,99.99
2022-10-24T09:24:54.556Z,99.99
2022-10-24T09:25:54.851Z,99.99
2022-10-24T09:26:54.793Z,99.99
2022-10-24T09:27:54.781Z,99.99
2022-10-24T09:28:54.520Z,99.99
2022-10-24T09:29:54.528Z,99.99
2022-10-24T09:30:54.771Z,99.99
2022-10-24T09:31:54.745Z,99.99
2022-10-24T09:32:54.744Z,99.99
2022-10-24T09:33:54.732Z,99.99
2022-10-24T09:34:54.717Z,99.99
2022-10-24T09:35:54.706Z,99.99
2022-10-24T09:36:54.704Z,99.99
2022-10-24T09:37:55.106Z,99.99
2022-10-24T09:38:54.433Z,99.99
2022-10-24T09:39:54.421Z,99.99
2022-10-24T09:40:54.674Z,99.99
2022-10-24T09:41:54.711Z,99.99
2022-10-24T09:42:54.392Z,99.99
2022-10-24T09:43:54.656Z,99.99
2022-10-24T09:44:54.375Z,99.99
2022-10-24T09:45:54.617Z,99.99
2022-10-24T09:46:54.355Z,99.99
2022-10-24T09:47:54.595Z,99.99
2022-10-24T09:48:54.591Z,99.99
2022-10-24T09:49:54.583Z,99.99
2022-10-24T09:50:54.320Z,99.99
2022-10-24T09:51:54.322Z,99.99
2022-10-24T09:52:54.303Z,99.99
2022-10-24T09:53:54.292Z,99.99
2022-10-24T09:54:54.281Z,99.99
2022-10-24T09:55:54.277Z,99.99
2022-10-24T09:56:56.994Z,99.99
2022-10-24T09:57:54.534Z,99.99
2022-10-24T09:58:54.503Z,99.99
2022-10-24T09:59:54.236Z,99.99
2022-10-24T10:00:54.224Z,99.99
2022-10-24T10:01:54.593Z,99.99
2022-10-24T10:02:54.460Z,99.99
2022-10-24T10:03:54.199Z,99.99
2022-10-24T10:04:54.188Z,99.99
2022-10-24T10:05:54.442Z,99.99
2022-10-24T10:06:54.515Z,99.99
2022-10-24T10:07:54.163Z,99.99
2022-10-24T10:08:54.406Z,99.99
2022-10-24T10:09:59.001Z,99.99
2022-10-24T10:10:54.456Z,99.99
2022-10-24T10:12:04.720Z,99.99
2022-10-24T10:12:54.111Z,99.99
2022-10-24T10:13:54.392Z,99.99
2022-10-24T10:14:54.103Z,99.99
2022-10-24T10:15:54.347Z,99.99
2022-10-24T10:17:54.068Z,99.99
2022-10-24T10:18:54.065Z,99.99
2022-10-24T10:19:54.302Z,99.99
2022-10-24T10:20:54.299Z,99.99
2022-10-24T10:21:54.294Z,99.99
2022-10-24T10:22:54.282Z,99.99
2022-10-24T10:23:54.039Z,99.99
2022-10-24T10:24:54.266Z,99.99
2022-10-24T10:25:54.283Z,99.99
2022-10-24T10:26:54.278Z,99.99
2022-10-24T10:27:54.002Z,99.99
2022-10-24T10:28:53.972Z,99.99
2022-10-24T10:29:54.240Z,99.99
2022-10-24T10:30:54.225Z,99.99
2022-10-24T10:31:53.978Z,99.99
2022-10-24T10:32:54.225Z,99.99
2022-10-24T10:33:53.991Z,99.99
2022-10-24T10:34:53.913Z,99.99
2022-10-24T10:35:54.158Z,99.99
2022-10-24T10:36:54.160Z,99.99
2022-10-24T10:37:54.143Z,99.99
2022-10-24T10:38:54.133Z,99.99
2022-10-24T10:39:54.118Z,99.99
2022-10-24T10:40:53.860Z,99.99
2022-10-24T10:42:54.093Z,99.99
2022-10-24T10:43:53.854Z,99.99
2022-10-24T10:44:54.077Z,99.99
2022-10-24T10:45:54.094Z,99.99
2022-10-24T10:46:54.062Z,99.99
2022-10-24T10:47:53.797Z,99.99
2022-10-24T10:48:54.047Z,99.99
2022-10-24T10:49:54.031Z,99.99
2022-10-24T10:50:54.047Z,99.99
2022-10-24T10:51:53.762Z,99.99
2022-10-24T10:52:54.006Z,99.99
2022-10-24T10:53:53.995Z,99.99
2022-10-24T10:54:53.990Z,99.99
2022-10-24T10:55:53.978Z,99.99
2022-10-24T10:56:53.716Z,99.99
2022-10-24T10:57:53.706Z,99.99
2022-10-24T10:58:53.699Z,99.99
2022-10-24T10:59:53.726Z,99.99
2022-10-24T11:00:53.943Z,99.99
2022-10-24T11:01:54.172Z,99.99
2022-10-24T11:02:55.929Z,99.99
2022-10-24T11:03:53.906Z,99.99
2022-10-24T11:04:53.903Z,99.99
2022-10-24T11:05:53.895Z,99.99
2022-10-24T11:06:53.754Z,99.99
2022-10-24T11:07:53.874Z,99.99
2022-10-24T11:08:53.886Z,99.99
2022-10-24T11:09:53.856Z,99.99
2022-10-24T11:10:53.852Z,99.99
2022-10-24T11:11:53.588Z,99.99
2022-10-24T11:12:53.839Z,99.99
2022-10-24T11:13:53.822Z,99.99
2022-10-24T11:14:53.825Z,99.99
2022-10-24T11:15:53.577Z,99.99
2022-10-24T11:16:53.801Z,99.99
2022-10-24T11:17:53.815Z,99.99
2022-10-24T11:18:53.786Z,99.99
2022-10-24T11:19:53.773Z,99.99
2022-10-24T11:20:53.510Z,99.99
2022-10-24T11:21:53.764Z,99.99
2022-10-24T11:22:53.756Z,99.99
2022-10-24T11:23:53.738Z,99.99
2022-10-24T11:24:53.487Z,99.99
2022-10-24T11:25:53.725Z,99.99
2022-10-24T11:26:53.720Z,99.99
2022-10-24T11:27:53.719Z,99.99
2022-10-24T11:28:53.444Z,99.99
2022-10-24T11:29:53.777Z,99.99
2022-10-24T11:30:53.433Z,99.99
2022-10-24T11:31:53.777Z,99.99
2022-10-24T11:32:53.411Z,99.99
2022-10-24T11:33:53.690Z,99.99
2022-10-24T11:34:53.397Z,99.99
2022-10-24T11:35:53.643Z,99.99
2022-10-24T11:36:57.861Z,99.99
2022-10-24T11:37:53.624Z,99.99
2022-10-24T11:38:53.616Z,99.99
2022-10-24T11:39:53.812Z,99.99
2022-10-24T11:40:58.775Z,99.99
2022-10-24T11:41:53.491Z,99.99
2022-10-24T11:42:53.649Z,99.99
2022-10-24T11:43:53.319Z,99.99
2022-10-24T11:44:53.315Z,99.99
2022-10-24T11:45:53.302Z,99.99
2022-10-24T11:46:53.294Z,99.99
2022-10-24T11:47:53.568Z,99.99
2022-10-24T11:48:53.534Z,99.99
2022-10-24T11:49:53.557Z,99.99
2022-10-24T11:50:53.260Z,99.99
2022-10-24T11:51:53.512Z,99.99
2022-10-24T11:52:53.497Z,99.99
2022-10-24T11:53:53.494Z,99.99
2022-10-24T11:54:53.228Z,99.99
2022-10-24T11:55:54.204Z,99.99
2022-10-24T11:56:54.449Z,99.99
2022-10-24T11:57:54.190Z,99.99
2022-10-24T11:58:54.178Z,99.99
2022-10-24T11:59:54.171Z,99.99
2022-10-24T12:00:54.414Z,99.99
2022-10-24T12:01:54.427Z,99.99
2022-10-24T12:02:54.318Z,99.99
2022-10-24T12:03:54.190Z,99.99
2022-10-24T12:04:54.128Z,99.99
2022-10-24T12:05:54.448Z,99.99
2022-10-24T12:06:54.394Z,99.99
2022-10-24T12:07:54.135Z,99.99
2022-10-24T12:08:54.360Z,99.99
2022-10-24T12:09:54.341Z,99.99
2022-10-24T12:10:54.330Z,99.99
2022-10-24T12:11:54.067Z,99.99
2022-10-24T12:12:54.057Z,99.99
2022-10-24T12:13:54.469Z,99.99
2022-10-24T12:14:54.300Z,99.99
2022-10-24T12:15:54.289Z,99.99
2022-10-24T12:16:54.022Z,99.99
2022-10-24T12:17:54.043Z,99.99
2022-10-24T12:18:54.303Z,99.99
2022-10-24T12:19:54.050Z,99.99
2022-10-24T12:20:54.271Z,99.99
2022-10-24T12:21:54.293Z,99.99
2022-10-24T12:22:54.007Z,99.99
2022-10-24T12:23:54.252Z,99.99
2022-10-24T12:24:54.244Z,99.99
2022-10-24T12:25:53.978Z,99.99
2022-10-24T12:26:54.227Z,99.99
2022-10-24T12:27:53.961Z,99.99
2022-10-24T12:28:54.216Z,99.99
2022-10-24T12:29:54.197Z,99.99
2022-10-24T12:31:53.928Z,99.99
2022-10-24T12:32:53.920Z,99.99
2022-10-24T12:33:54.166Z,99.99
2022-10-24T12:35:06.909Z,99.99
2022-10-24T12:35:53.934Z,99.99
2022-10-24T12:36:54.149Z,99.99
2022-10-24T12:37:54.159Z,99.99
2022-10-24T12:38:54.131Z,99.99
2022-10-24T12:40:00.941Z,99.99
2022-10-24T12:40:54.115Z,99.99
2022-10-24T12:41:54.105Z,99.99
2022-10-24T12:42:54.097Z,99.99
2022-10-24T12:43:54.088Z,99.99
2022-10-24T12:44:53.829Z,99.99
2022-10-24T12:45:54.073Z,99.99
2022-10-24T12:46:53.812Z,99.99
2022-10-24T12:48:54.054Z,99.99
2022-10-24T12:49:54.332Z,99.99
2022-10-24T12:50:54.063Z,99.99
2022-10-24T12:51:53.773Z,99.99
2022-10-24T12:52:53.767Z,99.99
2022-10-24T12:53:54.032Z,99.99
2022-10-24T12:54:54.008Z,99.99
2022-10-24T12:55:53.741Z,99.99
2022-10-24T12:56:53.797Z,99.99
2022-10-24T12:57:53.725Z,99.99
2022-10-24T12:58:53.720Z,99.99
2022-10-24T12:59:53.709Z,99.99
2022-10-24T13:00:53.962Z,99.99
2022-10-24T13:01:54.037Z,99.99
2022-10-24T13:02:54.106Z,99.99
2022-10-24T13:03:53.682Z,99.99
2022-10-24T13:04:53.676Z,99.99
2022-10-24T13:05:53.664Z,99.99
2022-10-24T13:06:53.943Z,99.99
2022-10-24T13:07:54.601Z,99.99
2022-10-24T13:08:53.644Z,99.99
2022-10-24T13:09:53.911Z,99.99
2022-10-24T13:10:53.880Z,99.99
2022-10-24T13:11:56.849Z,99.99
2022-10-24T13:12:53.612Z,99.99
2022-10-24T13:13:57.031Z,99.99
2022-10-24T13:14:53.595Z,99.99
2022-10-24T13:15:53.847Z,99.99
2022-10-24T13:16:53.582Z,99.99